Latest Weather Observations for Lord Howe Island Windy Point

IDN60801

Issued at 2:35 am EST Thursday 24 April 2014 (issued every 30 minutes, with the page automatically refreshed every 10 minutes)

About weather observations | Map of weather stations | Latest weather observations for NSW | Other Formats
Station Details ID: 200715 Name: LORD HOWE ISLAND WINDY POINT Lat: -31.54 Lon: 159.07 Height: 4.0 m
Data from the previous 72 hours. | See also: Recent months for locations in New South Wales
Date/Time
EST
Temp
°C
App
Temp
°C
Dew
Point
Rel
Hum
%
Delta-T
°C
Wind Press
QNH
hPa
Press
MSL
hPa
Rain
since 9 am
mm
Dir
 
Spd
km/h
Gust
km/h
Spd
kts
Gust
kts
24/02:30am - - - - - NNW 15 26 8 14 - - -
24/02:00am - - - - - NW 11 20 6 11 - - -
24/01:30am - - - - - NNW 15 24 8 13 - - -
24/01:00am - - - - - NNW 17 28 9 15 - - -
24/12:30am - - - - - NNW 17 32 9 17 - - -
24/12:00am - - - - - N 13 28 7 15 - - -
 
Date/Time
EST
Temp
°C
App
Temp
°C
Dew
Point
Rel
Hum
%
Delta-T
°C
Wind Press
QNH
hPa
Press
MSL
hPa
Rain
since 9 am
mm
Dir
 
Spd
km/h
Gust
km/h
Spd
kts
Gust
kts
23/11:30pm - - - - - N 9 17 5 9 - - -
23/11:00pm - - - - - ENE 9 20 5 11 - - -
23/10:30pm - - - - - N 17 39 9 21 - - -
23/10:00pm - - - - - NNW 11 22 6 12 - - -
23/09:30pm - - - - - NNW 15 20 8 11 - - -
23/09:00pm - - - - - NNW 13 19 7 10 - - -
23/08:30pm - - - - - NNE 7 13 4 7 - - -
23/08:00pm - - - - - NNW 11 19 6 10 - - -
23/07:30pm - - - - - NE 6 11 3 6 - - -
23/07:00pm - - - - - NNW 11 17 6 9 - - -
23/06:30pm - - - - - NNW 7 13 4 7 - - -
23/06:00pm - - - - - N 6 11 3 6 - - -
23/05:30pm - - - - - NNE 7 11 4 6 - - -
23/05:00pm - - - - - NE 6 9 3 5 - - -
23/04:30pm - - - - - NNW 7 13 4 7 - - -
23/04:00pm - - - - - NNW 13 19 7 10 - - -
23/03:30pm - - - - - NW 15 19 8 10 - - -
23/03:00pm - - - - - NW 13 17 7 9 - - -
23/02:30pm - - - - - NW 15 26 8 14 - - -
23/02:00pm - - - - - NW 15 20 8 11 - - -
23/01:30pm - - - - - NW 11 20 6 11 - - -
23/01:00pm - - - - - N 15 26 8 14 - - -
23/12:30pm - - - - - NNW 13 26 7 14 - - -
23/12:00pm - - - - - NW 15 26 8 14 - - -
23/11:30am - - - - - NW 11 20 6 11 - - -
23/11:00am - - - - - WNW 17 19 9 10 - - -
23/10:30am - - - - - WNW 15 24 8 13 - - -
23/10:00am - - - - - NW 13 15 7 8 - - -
23/09:30am - - - - - NW 11 15 6 8 - - -
23/09:00am - - - - - WNW 9 11 5 6 - - -
23/08:30am - - - - - NW 9 11 5 6 - - -
23/08:00am - - - - - WNW 11 15 6 8 - - -
23/07:30am - - - - - NNW 9 15 5 8 - - -
23/07:00am - - - - - NNW 9 11 5 6 - - -
23/06:30am - - - - - NNW 7 9 4 5 - - -
23/06:00am - - - - - N 7 7 4 4 - - -
23/05:30am - - - - - NNW 7 9 4 5 - - -
23/05:00am - - - - - NNW 9 13 5 7 - - -
23/04:30am - - - - - NNW 11 19 6 10 - - -
23/04:00am - - - - - N 9 19 5 10 - - -
23/03:30am - - - - - N 7 9 4 5 - - -
23/03:00am - - - - - N 9 13 5 7 - - -
23/02:30am - - - - - NNW 9 13 5 7 - - -
23/02:00am - - - - - N 9 13 5 7 - - -
23/01:30am - - - - - N 9 17 5 9 - - -
23/01:00am - - - - - N 11 17 6 9 - - -
23/12:30am - - - - - NNW 11 17 6 9 - - -
23/12:00am - - - - - NNW 11 17 6 9 - - -
 
Date/Time
EST
Temp
°C
App
Temp
°C
Dew
Point
Rel
Hum
%
Delta-T
°C
Wind Press
QNH
hPa
Press
MSL
hPa
Rain
since 9 am
mm
Dir
 
Spd
km/h
Gust
km/h
Spd
kts
Gust
kts
22/11:30pm - - - - - NNE 11 19 6 10 - - -
22/11:00pm - - - - - N 6 11 3 6 - - -
22/10:30pm - - - - - NNE 9 11 5 6 - - -
22/10:00pm - - - - - NE 11 15 6 8 - - -
22/09:30pm - - - - - NE 11 17 6 9 - - -
22/09:00pm - - - - - NNE 9 15 5 8 - - -
22/08:30pm - - - - - NE 11 17 6 9 - - -
22/08:00pm - - - - - NE 11 17 6 9 - - -
22/07:30pm - - - - - NE 13 20 7 11 - - -
22/07:00pm - - - - - NE 9 13 5 7 - - -
22/06:30pm - - - - - NE 9 13 5 7 - - -
22/06:00pm - - - - - NNE 6 7 3 4 - - -
22/05:30pm - - - - - N 7 11 4 6 - - -
22/05:00pm - - - - - N 6 9 3 5 - - -
22/04:30pm - - - - - N 11 17 6 9 - - -
22/04:00pm - - - - - N 9 13 5 7 - - -
22/03:30pm - - - - - N 9 17 5 9 - - -
22/03:00pm - - - - - NNW 13 17 7 9 - - -
22/02:30pm - - - - - N 13 20 7 11 - - -
22/02:00pm - - - - - NNE 13 17 7 9 - - -
22/01:30pm - - - - - N 9 19 5 10 - - -
22/01:00pm - - - - - NNW 13 19 7 10 - - -
22/12:30pm - - - - - N 13 24 7 13 - - -
22/12:00pm - - - - - NNE 13 22 7 12 - - -
22/11:30am - - - - - N 13 20 7 11 - - -
22/11:00am - - - - - NNE 13 22 7 12 - - -
22/10:30am - - - - - NW 15 22 8 12 - - -
22/10:00am - - - - - N 11 20 6 11 - - -
22/09:30am - - - - - NNW 11 19 6 10 - - -
22/09:00am - - - - - NNW 13 19 7 10 - - -
22/08:30am - - - - - NW 13 19 7 10 - - -
22/08:00am - - - - - NNW 11 19 6 10 - - -
22/07:30am - - - - - NNW 6 13 3 7 - - -
22/07:00am - - - - - N 6 11 3 6 - - -
22/06:30am - - - - - N 7 11 4 6 - - -
22/06:00am - - - - - N 7 11 4 6 - - -
22/05:30am - - - - - N 9 11 5 6 - - -
22/05:00am - - - - - N 9 13 5 7 - - -
22/04:30am - - - - - N 7 11 4 6 - - -
22/04:00am - - - - - N 9 13 5 7 - - -
22/03:30am - - - - - N 9 11 5 6 - - -
22/03:00am - - - - - N 7 11 4 6 - - -
22/02:30am - - - - - N 2 9 1 5 - - -
22/02:00am - - - - - N 6 11 3 6 - - -
22/01:30am - - - - - NNE 7 9 4 5 - - -
22/01:00am - - - - - NE 9 11 5 6 - - -
22/12:30am - - - - - NNE 7 9 4 5 - - -
22/12:00am - - - - - NNE 9 11 5 6 - - -
 
Date/Time
EST
Temp
°C
App
Temp
°C
Dew
Point
Rel
Hum
%
Delta-T
°C
Wind Press
QNH
hPa
Press
MSL
hPa
Rain
since 9 am
mm
Dir
 
Spd
km/h
Gust
km/h
Spd
kts
Gust
kts
21/11:30pm - - - - - N 7 9 4 5 - - -
21/11:00pm - - - - - NNE 9 11 5 6 - - -
21/10:30pm - - - - - NE 9 11 5 6 - - -
21/10:00pm - - - - - NE 9 11 5 6 - - -
21/09:30pm - - - - - NE 9 13 5 7 - - -
21/09:00pm - - - - - NE 9 15 5 8 - - -
21/08:30pm - - - - - NE 9 11 5 6 - - -
21/08:00pm - - - - - NE 9 11 5 6 - - -
21/07:30pm - - - - - NE 7 11 4 6 - - -
21/07:00pm - - - - - NE 7 9 4 5 - - -
21/06:30pm - - - - - NE 7 9 4 5 - - -
21/06:00pm - - - - - E 6 7 3 4 - - -
21/05:30pm - - - - - ENE 7 7 4 4 - - -
21/05:00pm - - - - - E 7 7 4 4 - - -
21/04:30pm - - - - - E 7 9 4 5 - - -
21/04:00pm - - - - - E 7 9 4 5 - - -
21/03:30pm - - - - - E 9 11 5 6 - - -
21/03:00pm - - - - - ESE 7 11 4 6 - - -
21/02:30pm - - - - - S 6 7 3 4 - - -
21/02:00pm - - - - - W 4 7 2 4 - - -
21/01:30pm - - - - - ESE 7 11 4 6 - - -
21/01:00pm - - - - - NNE 6 11 3 6 - - -
21/12:30pm - - - - - SW 7 9 4 5 - - -
21/12:00pm - - - - - SW 7 11 4 6 - - -
21/11:30am - - - - - SSW 7 9 4 5 - - -
21/11:00am - - - - - S 9 11 5 6 - - -
21/10:30am - - - - - SSW 9 13 5 7 - - -
21/10:00am - - - - - SSW 11 15 6 8 - - -
21/09:30am - - - - - SW 9 13 5 7 - - -
21/09:00am - - - - - SSW 11 17 6 9 - - -
21/08:30am - - - - - SSW 13 17 7 9 - - -
21/08:00am - - - - - SW 19 26 10 14 - - -
21/07:30am - - - - - WSW 17 20 9 11 - - -
21/07:00am - - - - - WSW 15 20 8 11 - - -
21/06:30am - - - - - WSW 17 22 9 12 - - -
21/06:00am - - - - - WSW 19 24 10 13 - - -
21/05:30am - - - - - WSW 19 24 10 13 - - -
21/05:00am - - - - - WSW 19 22 10 12 - - -
21/04:30am - - - - - WSW 17 24 9 13 - - -
21/04:00am - - - - - WSW 19 24 10 13 - - -
21/03:30am - - - - - W 19 22 10 12 - - -
21/03:00am - - - - - CALM 0 0 0 0 - - -

Other Formats:

Comma delimited format used in spreadsheet applications
http://www.bom.gov.au/fwo/IDN60801/IDN60801.95995.axf

JavaScript Object Notation format (JSON) in row-major order
http://www.bom.gov.au/fwo/IDN60801/IDN60801.95995.json